NWK1741 YPDN-YPPH
Flight info
| Callsign | NWK1741 |
|---|---|
| Flight time | 3h 35m |
| Altitude | 36000 |
| Route | HELLI J151 SUNPO/N0456F380 J151 CIN W257 NWN Q38 JULIM |
| Aircraft | A319/M-SDFGHIRWXYZ/LB1 |
Departure
| Time | 2026-03-29 05:33 |
|---|---|
| Airport | Darwin International Airport / RAAF Darwin (YPDN) |
Arrival
| Time | 2026-03-29 09:09 |
|---|---|
| Airport | Perth International Airport (YPPH) |
| Time | Latitude | Longitude | Altitude | Speed | Heading |
|---|---|---|---|---|---|
| 2026-03-29 04:19 | -12.40892 | 130.87790 | 90 ft | 0 kts | 19° |
| 2026-03-29 05:25 | -12.40895 | 130.87789 | 90 ft | 2 kts | 19° |
| 2026-03-29 05:25 | -12.40912 | 130.87782 | 90 ft | 3 kts | 24° |
| 2026-03-29 05:25 | -12.40930 | 130.87773 | 90 ft | 3 kts | 31° |
| 2026-03-29 05:25 | -12.40947 | 130.87762 | 90 ft | 3 kts | 45° |
| 2026-03-29 05:26 | -12.40959 | 130.87746 | 90 ft | 3 kts | 79° |
| 2026-03-29 05:26 | -12.40960 | 130.87737 | 90 ft | 0 kts | 100° |
| 2026-03-29 05:27 | -12.40961 | 130.87745 | 90 ft | 3 kts | 100° |
| 2026-03-29 05:28 | -12.40969 | 130.87787 | 90 ft | 10 kts | 100° |
| 2026-03-29 05:28 | -12.40988 | 130.87876 | 90 ft | 16 kts | 108° |
| 2026-03-29 05:28 | -12.41030 | 130.87997 | 90 ft | 20 kts | 109° |
| 2026-03-29 05:28 | -12.41097 | 130.88095 | 90 ft | 18 kts | 173° |
| 2026-03-29 05:29 | -12.41213 | 130.88060 | 90 ft | 17 kts | 200° |
| 2026-03-29 05:29 | -12.41330 | 130.88019 | 89 ft | 19 kts | 199° |
| 2026-03-29 05:29 | -12.41472 | 130.87969 | 88 ft | 24 kts | 199° |
| 2026-03-29 05:29 | -12.41618 | 130.87924 | 92 ft | 23 kts | 185° |
| 2026-03-29 05:30 | -12.41725 | 130.88013 | 90 ft | 23 kts | 107° |
| 2026-03-29 05:30 | -12.41778 | 130.88172 | 90 ft | 22 kts | 109° |
| 2026-03-29 05:30 | -12.41825 | 130.88312 | 90 ft | 23 kts | 109° |
| 2026-03-29 05:30 | -12.41884 | 130.88486 | 90 ft | 29 kts | 109° |
| 2026-03-29 05:31 | -12.41956 | 130.88699 | 90 ft | 35 kts | 108° |
| 2026-03-29 05:31 | -12.42032 | 130.88925 | 90 ft | 35 kts | 109° |
| 2026-03-29 05:31 | -12.42096 | 130.89114 | 90 ft | 15 kts | 109° |
| 2026-03-29 05:31 | -12.42137 | 130.89235 | 90 ft | 20 kts | 109° |
| 2026-03-29 05:32 | -12.42095 | 130.89373 | 89 ft | 25 kts | 32° |
| 2026-03-29 05:32 | -12.41955 | 130.89424 | 89 ft | 14 kts | 18° |
| 2026-03-29 05:32 | -12.41901 | 130.89376 | 90 ft | 10 kts | 290° |
| 2026-03-29 05:32 | -12.41893 | 130.89354 | 91 ft | 17 kts | 290° |
| 2026-03-29 05:33 | -12.41776 | 130.89011 | 91 ft | 83 kts | 289° |
| 2026-03-29 05:33 | -12.41525 | 130.88265 | 87 ft | 137 kts | 289° |
| 2026-03-29 05:33 | -12.41166 | 130.87205 | 183 ft | 170 kts | 290° |
| 2026-03-29 05:33 | -12.40781 | 130.86083 | 776 ft | 168 kts | 289° |
| 2026-03-29 05:34 | -12.40396 | 130.84941 | 1346 ft | 170 kts | 289° |
| 2026-03-29 05:34 | -12.40008 | 130.83788 | 1913 ft | 176 kts | 289° |
| 2026-03-29 05:34 | -12.39586 | 130.82536 | 2204 ft | 197 kts | 289° |
| 2026-03-29 05:34 | -12.39113 | 130.81133 | 2440 ft | 219 kts | 289° |
| 2026-03-29 05:35 | -12.38586 | 130.79572 | 2671 ft | 245 kts | 289° |
| 2026-03-29 05:35 | -12.38006 | 130.77847 | 3008 ft | 268 kts | 289° |
| 2026-03-29 05:35 | -12.37383 | 130.75998 | 3634 ft | 280 kts | 289° |
| 2026-03-29 05:35 | -12.36831 | 130.74071 | 4436 ft | 285 kts | 277° |
| 2026-03-29 05:36 | -12.36922 | 130.72049 | 5246 ft | 287 kts | 254° |
| 2026-03-29 05:36 | -12.37753 | 130.70201 | 6048 ft | 288 kts | 231° |
| 2026-03-29 05:36 | -12.39193 | 130.68794 | 6857 ft | 287 kts | 212° |
| 2026-03-29 05:36 | -12.40839 | 130.67620 | 7659 ft | 290 kts | 212° |
| 2026-03-29 05:37 | -12.42481 | 130.66443 | 8419 ft | 293 kts | 212° |
| 2026-03-29 05:37 | -12.44178 | 130.65217 | 9161 ft | 297 kts | 213° |
| 2026-03-29 05:37 | -12.45872 | 130.63986 | 9857 ft | 300 kts | 213° |
| 2026-03-29 05:37 | -12.47604 | 130.62729 | 10253 ft | 316 kts | 214° |
| 2026-03-29 05:38 | -12.49462 | 130.61384 | 10389 ft | 338 kts | 214° |
| 2026-03-29 05:38 | -12.51426 | 130.59961 | 10652 ft | 352 kts | 214° |
| 2026-03-29 05:38 | -12.53434 | 130.58498 | 11176 ft | 356 kts | 214° |
| 2026-03-29 05:38 | -12.55465 | 130.57018 | 11755 ft | 360 kts | 214° |
| 2026-03-29 05:39 | -12.57483 | 130.55550 | 12344 ft | 362 kts | 215° |
| 2026-03-29 05:39 | -12.59547 | 130.54050 | 12916 ft | 365 kts | 215° |
| 2026-03-29 05:39 | -12.61623 | 130.52541 | 13447 ft | 368 kts | 215° |
| 2026-03-29 05:39 | -12.63720 | 130.51021 | 13973 ft | 371 kts | 215° |
| 2026-03-29 05:40 | -12.65836 | 130.49485 | 14482 ft | 374 kts | 215° |
| 2026-03-29 05:40 | -12.67965 | 130.47940 | 14980 ft | 377 kts | 214° |
| 2026-03-29 05:40 | -12.70112 | 130.46382 | 15456 ft | 380 kts | 214° |
| 2026-03-29 05:40 | -12.72276 | 130.44806 | 15930 ft | 383 kts | 215° |
| 2026-03-29 05:41 | -12.74457 | 130.43221 | 16387 ft | 386 kts | 214° |
| 2026-03-29 05:41 | -12.76653 | 130.41626 | 16839 ft | 388 kts | 214° |
| 2026-03-29 05:41 | -12.78860 | 130.40018 | 17267 ft | 391 kts | 214° |
| 2026-03-29 05:41 | -12.81089 | 130.38393 | 17701 ft | 394 kts | 214° |
| 2026-03-29 05:42 | -12.83243 | 130.36639 | 18119 ft | 398 kts | 223° |
| 2026-03-29 05:42 | -12.85082 | 130.34508 | 18534 ft | 402 kts | 231° |
| 2026-03-29 05:42 | -12.86798 | 130.32236 | 18953 ft | 404 kts | 231° |
| 2026-03-29 05:42 | -12.88525 | 130.29953 | 19373 ft | 407 kts | 231° |
| 2026-03-29 05:43 | -12.90266 | 130.27656 | 19787 ft | 409 kts | 231° |
| 2026-03-29 05:43 | -12.92017 | 130.25348 | 20190 ft | 412 kts | 231° |
| 2026-03-29 05:43 | -12.93781 | 130.23020 | 20586 ft | 414 kts | 231° |
| 2026-03-29 05:43 | -12.95554 | 130.20683 | 20965 ft | 417 kts | 231° |
| 2026-03-29 05:44 | -12.97339 | 130.18332 | 21322 ft | 419 kts | 231° |
| 2026-03-29 05:44 | -12.99134 | 130.15968 | 21664 ft | 421 kts | 231° |
| 2026-03-29 05:44 | -13.00934 | 130.13594 | 21987 ft | 423 kts | 231° |
| 2026-03-29 05:44 | -13.02744 | 130.11208 | 22294 ft | 425 kts | 231° |
| 2026-03-29 05:45 | -13.04562 | 130.08811 | 22594 ft | 427 kts | 231° |
| 2026-03-29 05:45 | -13.06390 | 130.06397 | 22889 ft | 429 kts | 231° |
| 2026-03-29 05:45 | -13.08220 | 130.03974 | 23189 ft | 431 kts | 231° |
| 2026-03-29 05:45 | -13.10058 | 130.01541 | 23459 ft | 433 kts | 231° |
| 2026-03-29 05:46 | -13.11906 | 129.99096 | 23735 ft | 434 kts | 231° |
| 2026-03-29 05:46 | -13.13762 | 129.96643 | 23996 ft | 436 kts | 231° |
| 2026-03-29 05:46 | -13.15629 | 129.94177 | 24257 ft | 438 kts | 231° |
| 2026-03-29 05:46 | -13.17502 | 129.91703 | 24526 ft | 440 kts | 231° |
| 2026-03-29 05:47 | -13.19378 | 129.89219 | 24798 ft | 441 kts | 231° |
| 2026-03-29 05:47 | -13.21259 | 129.86726 | 25073 ft | 442 kts | 231° |
| 2026-03-29 05:47 | -13.23144 | 129.84228 | 25338 ft | 443 kts | 231° |
| 2026-03-29 05:47 | -13.25034 | 129.81721 | 25601 ft | 445 kts | 231° |
| 2026-03-29 05:48 | -13.26288 | 129.80059 | 25776 ft | 445 kts | 231° |
| 2026-03-29 05:48 | -13.28185 | 129.77543 | 26037 ft | 446 kts | 231° |
| 2026-03-29 05:48 | -13.30732 | 129.74159 | 26380 ft | 448 kts | 231° |
| 2026-03-29 05:48 | -13.31995 | 129.72483 | 26547 ft | 449 kts | 231° |
| 2026-03-29 05:49 | -13.34555 | 129.69091 | 26867 ft | 450 kts | 231° |
| 2026-03-29 05:49 | -13.36472 | 129.66544 | 27097 ft | 451 kts | 231° |
| 2026-03-29 05:49 | -13.37746 | 129.64854 | 27252 ft | 452 kts | 231° |
| 2026-03-29 05:49 | -13.39672 | 129.62299 | 27463 ft | 453 kts | 231° |
| 2026-03-29 05:50 | -13.41599 | 129.59739 | 27694 ft | 454 kts | 231° |
| 2026-03-29 05:50 | -13.43532 | 129.57171 | 27925 ft | 455 kts | 230° |
| 2026-03-29 05:50 | -13.45467 | 129.54597 | 28123 ft | 456 kts | 231° |
| 2026-03-29 05:50 | -13.47406 | 129.52017 | 28330 ft | 456 kts | 230° |
| 2026-03-29 05:51 | -13.49347 | 129.49433 | 28525 ft | 458 kts | 231° |
| 2026-03-29 05:51 | -13.51292 | 129.46839 | 28722 ft | 459 kts | 230° |
| 2026-03-29 05:51 | -13.53245 | 129.44243 | 28917 ft | 459 kts | 230° |
| 2026-03-29 05:51 | -13.55202 | 129.41645 | 29109 ft | 461 kts | 230° |
| 2026-03-29 05:52 | -13.57164 | 129.39038 | 29298 ft | 462 kts | 230° |
| 2026-03-29 05:52 | -13.59130 | 129.36424 | 29498 ft | 463 kts | 230° |
| 2026-03-29 05:52 | -13.61100 | 129.33808 | 29685 ft | 464 kts | 230° |
| 2026-03-29 05:52 | -13.63073 | 129.31181 | 29865 ft | 464 kts | 230° |
| 2026-03-29 05:53 | -13.65045 | 129.28548 | 30048 ft | 465 kts | 230° |
| 2026-03-29 05:53 | -13.67022 | 129.25905 | 30217 ft | 467 kts | 230° |
| 2026-03-29 05:53 | -13.69003 | 129.23256 | 30382 ft | 468 kts | 230° |
| 2026-03-29 05:53 | -13.70985 | 129.20609 | 30584 ft | 468 kts | 230° |
| 2026-03-29 05:54 | -13.72970 | 129.17958 | 30823 ft | 467 kts | 230° |
| 2026-03-29 05:54 | -13.74952 | 129.15316 | 31059 ft | 467 kts | 230° |
| 2026-03-29 05:54 | -13.76934 | 129.12676 | 31297 ft | 466 kts | 230° |
| 2026-03-29 05:54 | -13.78912 | 129.10037 | 31537 ft | 465 kts | 230° |
| 2026-03-29 05:55 | -13.80886 | 129.07400 | 31769 ft | 465 kts | 230° |
| 2026-03-29 05:55 | -13.82858 | 129.04762 | 32014 ft | 465 kts | 230° |
| 2026-03-29 05:55 | -13.84829 | 129.02125 | 32267 ft | 464 kts | 230° |
| 2026-03-29 05:55 | -13.86795 | 128.99494 | 32524 ft | 464 kts | 230° |
| 2026-03-29 05:56 | -13.88762 | 128.96864 | 32786 ft | 463 kts | 230° |
| 2026-03-29 05:56 | -13.90728 | 128.94240 | 33042 ft | 463 kts | 230° |
| 2026-03-29 05:56 | -13.92689 | 128.91617 | 33321 ft | 462 kts | 230° |
| 2026-03-29 05:56 | -13.94644 | 128.88992 | 33594 ft | 461 kts | 230° |
| 2026-03-29 05:57 | -13.96592 | 128.86374 | 33854 ft | 460 kts | 230° |
| 2026-03-29 05:57 | -13.98540 | 128.83757 | 34111 ft | 460 kts | 230° |
| 2026-03-29 05:57 | -14.00483 | 128.81148 | 34365 ft | 459 kts | 230° |
| 2026-03-29 05:57 | -14.02423 | 128.78544 | 34629 ft | 457 kts | 230° |
| 2026-03-29 05:58 | -14.04353 | 128.75953 | 34922 ft | 455 kts | 230° |
| 2026-03-29 05:58 | -14.06279 | 128.73368 | 35168 ft | 454 kts | 230° |
| 2026-03-29 05:58 | -14.08204 | 128.70789 | 35380 ft | 454 kts | 230° |
| 2026-03-29 05:58 | -14.10104 | 128.68247 | 35575 ft | 454 kts | 230° |
| 2026-03-29 05:59 | -14.12027 | 128.65670 | 35788 ft | 454 kts | 230° |
| 2026-03-29 05:59 | -14.13951 | 128.63090 | 35891 ft | 452 kts | 230° |
| 2026-03-29 05:59 | -14.17771 | 128.57955 | 35906 ft | 451 kts | 230° |
| 2026-03-29 06:00 | -14.21583 | 128.52817 | 35906 ft | 451 kts | 230° |
| 2026-03-29 06:00 | -14.25404 | 128.47687 | 35911 ft | 451 kts | 230° |
| 2026-03-29 06:01 | -14.29221 | 128.42555 | 35914 ft | 451 kts | 230° |
| 2026-03-29 06:01 | -14.33036 | 128.37412 | 35920 ft | 451 kts | 230° |
| 2026-03-29 06:02 | -14.36882 | 128.32242 | 35921 ft | 451 kts | 230° |
| 2026-03-29 06:02 | -14.40679 | 128.27132 | 35926 ft | 451 kts | 230° |
| 2026-03-29 06:03 | -14.44488 | 128.21983 | 35925 ft | 451 kts | 230° |
| 2026-03-29 06:03 | -14.48293 | 128.16837 | 35927 ft | 451 kts | 230° |
| 2026-03-29 06:04 | -14.52109 | 128.11695 | 35928 ft | 451 kts | 230° |
| 2026-03-29 06:04 | -14.55919 | 128.06552 | 35930 ft | 451 kts | 230° |
| 2026-03-29 06:05 | -14.59725 | 128.01414 | 35928 ft | 450 kts | 230° |
| 2026-03-29 06:05 | -14.63523 | 127.96269 | 35928 ft | 450 kts | 230° |
| 2026-03-29 06:06 | -14.67316 | 127.91124 | 35931 ft | 450 kts | 230° |
| 2026-03-29 06:06 | -14.71106 | 127.85978 | 35932 ft | 450 kts | 230° |
| 2026-03-29 06:07 | -14.74897 | 127.80841 | 35931 ft | 449 kts | 230° |
| 2026-03-29 06:07 | -14.78687 | 127.75708 | 35929 ft | 449 kts | 230° |
| 2026-03-29 06:08 | -14.82470 | 127.70568 | 35929 ft | 449 kts | 230° |
| 2026-03-29 06:08 | -14.86249 | 127.65431 | 35932 ft | 448 kts | 230° |
| 2026-03-29 06:09 | -14.90023 | 127.60299 | 35931 ft | 449 kts | 230° |
| 2026-03-29 06:09 | -14.93795 | 127.55161 | 35934 ft | 448 kts | 230° |
| 2026-03-29 06:10 | -14.97567 | 127.50029 | 35932 ft | 448 kts | 231° |
| 2026-03-29 06:10 | -15.01335 | 127.44897 | 35927 ft | 448 kts | 231° |
| 2026-03-29 06:11 | -15.05092 | 127.39765 | 35927 ft | 447 kts | 231° |
| 2026-03-29 06:11 | -15.08849 | 127.34631 | 35928 ft | 447 kts | 231° |
| 2026-03-29 06:12 | -15.12612 | 127.29506 | 35932 ft | 447 kts | 231° |
| 2026-03-29 06:12 | -15.16369 | 127.24380 | 35930 ft | 447 kts | 231° |
| 2026-03-29 06:13 | -15.20121 | 127.19249 | 35926 ft | 447 kts | 231° |
| 2026-03-29 06:13 | -15.23865 | 127.14116 | 35926 ft | 447 kts | 231° |
| 2026-03-29 06:14 | -15.27611 | 127.08984 | 35929 ft | 446 kts | 231° |
| 2026-03-29 06:14 | -15.31329 | 127.03887 | 35932 ft | 442 kts | 231° |
| 2026-03-29 06:15 | -15.35033 | 126.98801 | 35925 ft | 442 kts | 231° |
| 2026-03-29 06:15 | -15.38742 | 126.93717 | 35925 ft | 442 kts | 231° |
| 2026-03-29 06:16 | -15.42446 | 126.88631 | 35923 ft | 442 kts | 231° |
| 2026-03-29 06:16 | -15.46148 | 126.83544 | 35920 ft | 442 kts | 231° |
| 2026-03-29 06:17 | -15.49827 | 126.78488 | 35921 ft | 442 kts | 231° |
| 2026-03-29 06:17 | -15.53525 | 126.73402 | 35922 ft | 442 kts | 231° |
| 2026-03-29 06:18 | -15.57227 | 126.68313 | 35923 ft | 442 kts | 231° |
| 2026-03-29 06:18 | -15.60923 | 126.63234 | 35925 ft | 441 kts | 231° |
| 2026-03-29 06:19 | -15.64606 | 126.58151 | 35923 ft | 440 kts | 231° |
| 2026-03-29 06:19 | -15.68285 | 126.53069 | 35925 ft | 440 kts | 231° |
| 2026-03-29 06:20 | -15.71967 | 126.47991 | 35918 ft | 440 kts | 231° |
| 2026-03-29 06:20 | -15.75646 | 126.42915 | 35918 ft | 440 kts | 231° |
| 2026-03-29 06:21 | -15.79324 | 126.37835 | 35917 ft | 440 kts | 231° |
| 2026-03-29 06:21 | -15.82996 | 126.32751 | 35921 ft | 440 kts | 231° |
| 2026-03-29 06:22 | -15.86675 | 126.27672 | 35927 ft | 440 kts | 231° |
| 2026-03-29 06:22 | -15.90340 | 126.22587 | 35929 ft | 440 kts | 231° |
| 2026-03-29 06:23 | -15.94001 | 126.17493 | 35927 ft | 440 kts | 231° |
| 2026-03-29 06:23 | -15.97667 | 126.12413 | 35922 ft | 439 kts | 231° |
| 2026-03-29 06:24 | -16.01338 | 126.07330 | 35920 ft | 439 kts | 231° |
| 2026-03-29 06:24 | -16.04999 | 126.02241 | 35921 ft | 439 kts | 231° |
| 2026-03-29 06:25 | -16.08636 | 125.97188 | 35919 ft | 440 kts | 231° |
| 2026-03-29 06:25 | -16.12300 | 125.92101 | 35921 ft | 439 kts | 231° |
| 2026-03-29 06:26 | -16.17787 | 125.84459 | 35917 ft | 440 kts | 232° |
| 2026-03-29 06:27 | -16.21442 | 125.79359 | 35919 ft | 439 kts | 232° |
| 2026-03-29 06:27 | -16.25096 | 125.74258 | 35917 ft | 439 kts | 231° |
| 2026-03-29 06:28 | -16.28758 | 125.69164 | 35915 ft | 439 kts | 231° |
| 2026-03-29 06:28 | -16.32418 | 125.64068 | 35919 ft | 439 kts | 232° |
| 2026-03-29 06:29 | -16.36071 | 125.58962 | 35915 ft | 440 kts | 232° |
| 2026-03-29 06:29 | -16.39721 | 125.53841 | 35916 ft | 440 kts | 232° |
| 2026-03-29 06:30 | -16.43382 | 125.48720 | 35920 ft | 440 kts | 232° |
| 2026-03-29 06:30 | -16.47039 | 125.43600 | 35919 ft | 441 kts | 232° |
| 2026-03-29 06:31 | -16.50695 | 125.38477 | 35919 ft | 440 kts | 232° |
| 2026-03-29 06:31 | -16.54349 | 125.33356 | 35917 ft | 440 kts | 232° |
| 2026-03-29 06:32 | -16.57999 | 125.28230 | 35914 ft | 440 kts | 232° |
| 2026-03-29 06:32 | -16.61657 | 125.23107 | 35911 ft | 440 kts | 232° |
| 2026-03-29 06:33 | -16.67144 | 125.15400 | 35904 ft | 441 kts | 232° |
| 2026-03-29 06:33 | -16.70773 | 125.10287 | 35904 ft | 442 kts | 232° |
| 2026-03-29 06:34 | -16.73834 | 125.05976 | 35903 ft | 441 kts | 232° |
| 2026-03-29 06:34 | -16.77489 | 125.00828 | 35906 ft | 441 kts | 232° |
| 2026-03-29 06:35 | -16.81147 | 124.95676 | 35907 ft | 442 kts | 232° |
| 2026-03-29 06:35 | -16.84804 | 124.90522 | 35904 ft | 442 kts | 232° |
| 2026-03-29 06:36 | -16.88460 | 124.85357 | 35906 ft | 442 kts | 232° |
| 2026-03-29 06:36 | -16.92115 | 124.80189 | 35908 ft | 442 kts | 232° |
| 2026-03-29 06:37 | -16.95769 | 124.75022 | 35906 ft | 442 kts | 232° |
| 2026-03-29 06:37 | -16.99422 | 124.69853 | 35903 ft | 443 kts | 232° |
| 2026-03-29 06:38 | -17.03050 | 124.64714 | 35906 ft | 442 kts | 232° |
| 2026-03-29 06:38 | -17.06706 | 124.59545 | 35906 ft | 442 kts | 232° |
| 2026-03-29 06:39 | -17.10356 | 124.54367 | 35907 ft | 442 kts | 232° |
| 2026-03-29 06:39 | -17.14002 | 124.49186 | 35905 ft | 442 kts | 232° |
| 2026-03-29 06:40 | -17.17645 | 124.44009 | 35906 ft | 442 kts | 232° |
| 2026-03-29 06:40 | -17.21297 | 124.38833 | 35904 ft | 442 kts | 232° |
| 2026-03-29 06:41 | -17.24945 | 124.33659 | 35903 ft | 442 kts | 232° |
| 2026-03-29 06:41 | -17.28592 | 124.28473 | 35906 ft | 442 kts | 232° |
| 2026-03-29 06:42 | -17.32230 | 124.23287 | 35907 ft | 442 kts | 232° |
| 2026-03-29 06:42 | -17.35868 | 124.18100 | 35906 ft | 442 kts | 232° |
| 2026-03-29 06:43 | -17.39510 | 124.12912 | 35906 ft | 442 kts | 232° |
| 2026-03-29 06:43 | -17.43142 | 124.07723 | 35909 ft | 442 kts | 232° |
| 2026-03-29 06:44 | -17.46775 | 124.02530 | 35905 ft | 442 kts | 232° |
| 2026-03-29 06:44 | -17.50409 | 123.97335 | 35904 ft | 443 kts | 232° |
| 2026-03-29 06:45 | -17.54047 | 123.92131 | 35902 ft | 443 kts | 232° |
| 2026-03-29 06:45 | -17.57724 | 123.86959 | 35903 ft | 442 kts | 228° |
| 2026-03-29 06:46 | -17.62398 | 123.82840 | 35903 ft | 440 kts | 211° |
| 2026-03-29 06:46 | -17.67589 | 123.79426 | 35903 ft | 441 kts | 212° |
| 2026-03-29 06:47 | -17.72765 | 123.75979 | 35908 ft | 441 kts | 212° |
| 2026-03-29 06:47 | -17.77900 | 123.72549 | 35910 ft | 441 kts | 212° |
| 2026-03-29 06:48 | -17.83077 | 123.69100 | 35911 ft | 441 kts | 212° |
| 2026-03-29 06:48 | -17.88250 | 123.65645 | 35912 ft | 441 kts | 212° |
| 2026-03-29 06:49 | -17.93418 | 123.62185 | 35911 ft | 441 kts | 212° |
| 2026-03-29 06:49 | -17.98589 | 123.58736 | 35911 ft | 441 kts | 212° |
| 2026-03-29 06:50 | -18.03765 | 123.55285 | 35910 ft | 441 kts | 212° |
| 2026-03-29 06:50 | -18.08938 | 123.51827 | 35912 ft | 440 kts | 212° |
| 2026-03-29 06:51 | -18.14105 | 123.48368 | 35908 ft | 440 kts | 212° |
| 2026-03-29 06:51 | -18.19266 | 123.44900 | 35908 ft | 440 kts | 212° |
| 2026-03-29 06:52 | -18.24430 | 123.41430 | 35907 ft | 440 kts | 212° |
| 2026-03-29 06:52 | -18.29599 | 123.37966 | 35906 ft | 441 kts | 212° |
| 2026-03-29 06:53 | -18.34764 | 123.34505 | 35903 ft | 440 kts | 212° |
| 2026-03-29 06:53 | -18.39925 | 123.31028 | 35901 ft | 440 kts | 212° |
| 2026-03-29 06:54 | -18.45086 | 123.27551 | 35900 ft | 440 kts | 212° |
| 2026-03-29 06:54 | -18.50250 | 123.24078 | 35903 ft | 441 kts | 212° |
| 2026-03-29 06:55 | -18.55420 | 123.20602 | 35907 ft | 440 kts | 212° |
| 2026-03-29 06:55 | -18.60583 | 123.17124 | 35909 ft | 440 kts | 212° |
| 2026-03-29 06:56 | -18.65748 | 123.13636 | 36065 ft | 441 kts | 212° |
| 2026-03-29 06:56 | -18.68330 | 123.11889 | 36327 ft | 441 kts | 212° |
| 2026-03-29 06:56 | -18.70909 | 123.10147 | 36543 ft | 441 kts | 212° |
| 2026-03-29 06:57 | -18.73492 | 123.08405 | 36742 ft | 440 kts | 212° |
| 2026-03-29 06:57 | -18.76037 | 123.06683 | 36946 ft | 440 kts | 212° |
| 2026-03-29 06:57 | -18.78611 | 123.04942 | 37163 ft | 439 kts | 212° |
| 2026-03-29 06:57 | -18.81179 | 123.03209 | 37375 ft | 438 kts | 212° |
| 2026-03-29 06:58 | -18.83744 | 123.01478 | 37588 ft | 437 kts | 212° |
| 2026-03-29 06:58 | -18.86302 | 122.99748 | 37805 ft | 437 kts | 212° |
| 2026-03-29 06:58 | -18.91408 | 122.96293 | 37898 ft | 435 kts | 212° |
| 2026-03-29 06:59 | -18.96483 | 122.92861 | 37898 ft | 432 kts | 212° |
| 2026-03-29 06:59 | -19.01538 | 122.89431 | 37896 ft | 432 kts | 212° |
| 2026-03-29 07:00 | -19.06591 | 122.86005 | 37899 ft | 432 kts | 212° |
| 2026-03-29 07:00 | -19.11644 | 122.82579 | 37896 ft | 432 kts | 212° |
| 2026-03-29 07:01 | -19.16698 | 122.79144 | 37897 ft | 432 kts | 212° |
| 2026-03-29 07:01 | -19.21751 | 122.75706 | 37903 ft | 432 kts | 212° |
| 2026-03-29 07:02 | -19.26802 | 122.72270 | 37902 ft | 432 kts | 212° |
| 2026-03-29 07:02 | -19.31854 | 122.68833 | 37902 ft | 432 kts | 212° |
| 2026-03-29 07:03 | -19.36902 | 122.65390 | 37904 ft | 432 kts | 212° |
| 2026-03-29 07:03 | -19.41954 | 122.61943 | 37905 ft | 432 kts | 212° |
| 2026-03-29 07:04 | -19.47003 | 122.58492 | 37903 ft | 432 kts | 212° |
| 2026-03-29 07:04 | -19.52050 | 122.55047 | 37897 ft | 432 kts | 212° |
| 2026-03-29 07:05 | -19.57071 | 122.51633 | 37899 ft | 432 kts | 212° |
| 2026-03-29 07:05 | -19.62135 | 122.48181 | 37898 ft | 433 kts | 212° |
| 2026-03-29 07:06 | -19.67187 | 122.44705 | 37903 ft | 432 kts | 212° |
| 2026-03-29 07:06 | -19.72231 | 122.41236 | 37903 ft | 432 kts | 212° |
| 2026-03-29 07:07 | -19.77287 | 122.37772 | 37893 ft | 433 kts | 212° |
| 2026-03-29 07:07 | -19.82347 | 122.34304 | 37897 ft | 433 kts | 212° |
| 2026-03-29 07:08 | -19.89941 | 122.29100 | 37902 ft | 433 kts | 212° |
| 2026-03-29 07:09 | -19.94993 | 122.25618 | 37902 ft | 433 kts | 212° |
| 2026-03-29 07:09 | -20.00051 | 122.22141 | 37906 ft | 433 kts | 212° |
| 2026-03-29 07:10 | -20.05115 | 122.18659 | 37912 ft | 433 kts | 212° |
| 2026-03-29 07:10 | -20.10167 | 122.15176 | 37917 ft | 433 kts | 212° |
| 2026-03-29 07:11 | -20.15227 | 122.11690 | 37916 ft | 433 kts | 212° |
| 2026-03-29 07:11 | -20.20284 | 122.08200 | 37917 ft | 433 kts | 212° |
| 2026-03-29 07:12 | -20.25336 | 122.04711 | 37917 ft | 433 kts | 212° |
| 2026-03-29 07:12 | -20.30393 | 122.01223 | 37916 ft | 433 kts | 212° |
| 2026-03-29 07:13 | -20.35451 | 121.97735 | 37918 ft | 433 kts | 212° |
| 2026-03-29 07:13 | -20.40501 | 121.94238 | 37917 ft | 433 kts | 212° |
| 2026-03-29 07:14 | -20.45510 | 121.90768 | 37921 ft | 432 kts | 212° |
| 2026-03-29 07:14 | -20.50548 | 121.87275 | 37919 ft | 432 kts | 212° |
| 2026-03-29 07:15 | -20.55584 | 121.83783 | 37916 ft | 432 kts | 212° |
| 2026-03-29 07:15 | -20.60621 | 121.80300 | 37913 ft | 432 kts | 212° |
| 2026-03-29 07:16 | -20.65652 | 121.76805 | 37907 ft | 431 kts | 213° |
| 2026-03-29 07:16 | -20.70678 | 121.73316 | 37914 ft | 431 kts | 213° |
| 2026-03-29 07:17 | -20.75699 | 121.69823 | 37914 ft | 431 kts | 213° |
| 2026-03-29 07:17 | -20.80718 | 121.66332 | 37914 ft | 431 kts | 213° |
| 2026-03-29 07:18 | -20.85734 | 121.62843 | 37916 ft | 430 kts | 213° |
| 2026-03-29 07:18 | -20.90739 | 121.59348 | 37915 ft | 430 kts | 213° |
| 2026-03-29 07:19 | -20.95744 | 121.55852 | 37915 ft | 430 kts | 213° |
| 2026-03-29 07:19 | -21.00750 | 121.52362 | 37919 ft | 429 kts | 213° |
| 2026-03-29 07:20 | -21.04907 | 121.49456 | 37918 ft | 429 kts | 213° |
| 2026-03-29 07:20 | -21.10750 | 121.45380 | 37919 ft | 429 kts | 213° |
| 2026-03-29 07:21 | -21.15747 | 121.41886 | 37924 ft | 429 kts | 213° |
| 2026-03-29 07:21 | -21.19895 | 121.38974 | 37922 ft | 429 kts | 213° |
| 2026-03-29 07:22 | -21.24884 | 121.35479 | 37930 ft | 429 kts | 213° |
| 2026-03-29 07:22 | -21.30682 | 121.31403 | 37930 ft | 429 kts | 213° |
| 2026-03-29 07:23 | -21.34864 | 121.28470 | 37931 ft | 429 kts | 213° |
| 2026-03-29 07:23 | -21.39853 | 121.24961 | 37933 ft | 428 kts | 213° |
| 2026-03-29 07:24 | -21.45644 | 121.20897 | 37935 ft | 428 kts | 213° |
| 2026-03-29 07:24 | -21.49815 | 121.17970 | 37931 ft | 428 kts | 213° |
| 2026-03-29 07:25 | -21.54794 | 121.14469 | 37929 ft | 428 kts | 213° |
| 2026-03-29 07:25 | -21.59771 | 121.10958 | 37929 ft | 428 kts | 213° |
| 2026-03-29 07:26 | -21.64710 | 121.07470 | 37929 ft | 428 kts | 213° |
| 2026-03-29 07:26 | -21.69682 | 121.03953 | 37925 ft | 428 kts | 213° |
| 2026-03-29 07:27 | -21.74656 | 121.00434 | 37930 ft | 428 kts | 213° |
| 2026-03-29 07:27 | -21.79630 | 120.96920 | 37925 ft | 428 kts | 213° |
| 2026-03-29 07:28 | -21.84608 | 120.93404 | 37927 ft | 428 kts | 213° |
| 2026-03-29 07:28 | -21.89582 | 120.89879 | 37930 ft | 428 kts | 214° |
| 2026-03-29 07:29 | -21.94550 | 120.86347 | 37930 ft | 428 kts | 213° |
| 2026-03-29 07:29 | -21.99515 | 120.82822 | 37925 ft | 428 kts | 213° |
| 2026-03-29 07:30 | -22.04474 | 120.79302 | 37937 ft | 425 kts | 214° |
| 2026-03-29 07:30 | -22.09402 | 120.75803 | 37935 ft | 424 kts | 214° |
| 2026-03-29 07:31 | -22.14324 | 120.72296 | 37929 ft | 424 kts | 214° |
| 2026-03-29 07:31 | -22.19246 | 120.68786 | 37924 ft | 424 kts | 214° |
| 2026-03-29 07:32 | -22.24169 | 120.65278 | 37921 ft | 424 kts | 214° |
| 2026-03-29 07:32 | -22.29098 | 120.61776 | 37916 ft | 424 kts | 214° |
| 2026-03-29 07:33 | -22.34017 | 120.58263 | 37912 ft | 424 kts | 214° |
| 2026-03-29 07:33 | -22.38933 | 120.54743 | 37911 ft | 424 kts | 214° |
| 2026-03-29 07:34 | -22.43847 | 120.51221 | 37905 ft | 424 kts | 214° |
| 2026-03-29 07:34 | -22.48734 | 120.47722 | 37909 ft | 424 kts | 214° |
| 2026-03-29 07:35 | -22.53657 | 120.44202 | 37913 ft | 424 kts | 214° |
| 2026-03-29 07:35 | -22.58580 | 120.40679 | 37921 ft | 424 kts | 214° |
| 2026-03-29 07:36 | -22.63492 | 120.37158 | 37924 ft | 423 kts | 214° |
| 2026-03-29 07:36 | -22.68399 | 120.33634 | 37922 ft | 423 kts | 214° |
| 2026-03-29 07:37 | -22.73301 | 120.30100 | 37927 ft | 423 kts | 214° |
| 2026-03-29 07:37 | -22.78197 | 120.26574 | 37929 ft | 422 kts | 214° |
| 2026-03-29 07:38 | -22.83095 | 120.23051 | 37933 ft | 422 kts | 214° |
| 2026-03-29 07:38 | -22.87984 | 120.19529 | 37933 ft | 422 kts | 214° |
| 2026-03-29 07:39 | -22.92869 | 120.16014 | 37935 ft | 421 kts | 214° |
| 2026-03-29 07:39 | -22.97746 | 120.12501 | 37930 ft | 421 kts | 214° |
| 2026-03-29 07:40 | -23.02612 | 120.08981 | 37936 ft | 420 kts | 214° |
| 2026-03-29 07:40 | -23.07476 | 120.05461 | 37937 ft | 420 kts | 214° |
| 2026-03-29 07:41 | -23.12333 | 120.01946 | 37940 ft | 419 kts | 215° |
| 2026-03-29 07:41 | -23.17182 | 119.98437 | 37940 ft | 418 kts | 215° |
| 2026-03-29 07:42 | -23.22027 | 119.94926 | 37938 ft | 418 kts | 215° |
| 2026-03-29 07:42 | -23.26862 | 119.91414 | 37939 ft | 418 kts | 215° |
| 2026-03-29 07:43 | -23.31687 | 119.87896 | 37938 ft | 417 kts | 215° |
| 2026-03-29 07:43 | -23.36471 | 119.84410 | 37935 ft | 417 kts | 215° |
| 2026-03-29 07:44 | -23.41301 | 119.80927 | 37936 ft | 417 kts | 212° |
| 2026-03-29 07:44 | -23.46634 | 119.78410 | 37933 ft | 419 kts | 203° |
| 2026-03-29 07:45 | -23.52085 | 119.76152 | 37933 ft | 419 kts | 203° |
| 2026-03-29 07:45 | -23.57527 | 119.73890 | 37939 ft | 418 kts | 203° |
| 2026-03-29 07:46 | -23.62965 | 119.71620 | 37939 ft | 419 kts | 203° |
| 2026-03-29 07:46 | -23.68403 | 119.69341 | 37938 ft | 418 kts | 203° |
| 2026-03-29 07:47 | -23.73842 | 119.67069 | 37939 ft | 418 kts | 203° |
| 2026-03-29 07:47 | -23.79270 | 119.64797 | 37944 ft | 418 kts | 204° |
| 2026-03-29 07:48 | -23.84693 | 119.62522 | 37941 ft | 418 kts | 203° |
| 2026-03-29 07:48 | -23.90120 | 119.60249 | 37937 ft | 417 kts | 204° |
| 2026-03-29 07:49 | -23.95544 | 119.57973 | 37933 ft | 417 kts | 203° |
| 2026-03-29 07:49 | -24.00964 | 119.55697 | 37930 ft | 418 kts | 204° |
| 2026-03-29 07:50 | -24.06383 | 119.53407 | 37933 ft | 417 kts | 204° |
| 2026-03-29 07:50 | -24.11794 | 119.51120 | 37932 ft | 417 kts | 204° |
| 2026-03-29 07:51 | -24.17208 | 119.48838 | 37931 ft | 417 kts | 204° |
| 2026-03-29 07:51 | -24.22625 | 119.46551 | 37928 ft | 417 kts | 204° |
| 2026-03-29 07:52 | -24.28040 | 119.44269 | 37935 ft | 417 kts | 204° |
| 2026-03-29 07:52 | -24.33447 | 119.41982 | 37932 ft | 417 kts | 204° |
| 2026-03-29 07:53 | -24.38858 | 119.39689 | 37935 ft | 417 kts | 204° |
| 2026-03-29 07:53 | -24.44268 | 119.37404 | 37932 ft | 416 kts | 204° |
| 2026-03-29 07:54 | -24.49663 | 119.35114 | 37932 ft | 416 kts | 204° |
| 2026-03-29 07:54 | -24.55074 | 119.32820 | 37931 ft | 416 kts | 204° |
| 2026-03-29 07:55 | -24.60436 | 119.30546 | 37933 ft | 416 kts | 204° |
| 2026-03-29 07:55 | -24.65830 | 119.28257 | 37928 ft | 415 kts | 204° |
| 2026-03-29 07:56 | -24.71224 | 119.25970 | 37934 ft | 415 kts | 204° |
| 2026-03-29 07:56 | -24.76611 | 119.23672 | 37933 ft | 415 kts | 204° |
| 2026-03-29 07:57 | -24.81996 | 119.21371 | 37935 ft | 415 kts | 204° |
| 2026-03-29 07:57 | -24.87384 | 119.19074 | 37932 ft | 416 kts | 204° |
| 2026-03-29 07:58 | -24.92780 | 119.16776 | 37936 ft | 416 kts | 204° |
| 2026-03-29 07:58 | -24.98162 | 119.14474 | 37943 ft | 415 kts | 205° |
| 2026-03-29 07:59 | -25.03539 | 119.12164 | 37942 ft | 415 kts | 205° |
| 2026-03-29 07:59 | -25.08929 | 119.09865 | 37944 ft | 414 kts | 205° |
| 2026-03-29 08:00 | -25.14304 | 119.07570 | 37942 ft | 414 kts | 205° |
| 2026-03-29 08:00 | -25.19679 | 119.05255 | 37939 ft | 415 kts | 205° |
| 2026-03-29 08:01 | -25.25051 | 119.02949 | 37946 ft | 414 kts | 205° |
| 2026-03-29 08:01 | -25.30425 | 119.00651 | 37940 ft | 414 kts | 205° |
| 2026-03-29 08:02 | -25.35788 | 118.98344 | 37949 ft | 413 kts | 205° |
| 2026-03-29 08:02 | -25.41145 | 118.96041 | 37947 ft | 413 kts | 205° |
| 2026-03-29 08:03 | -25.46503 | 118.93736 | 37948 ft | 413 kts | 205° |
| 2026-03-29 08:03 | -25.51845 | 118.91425 | 37947 ft | 412 kts | 205° |
| 2026-03-29 08:04 | -25.57190 | 118.89112 | 37943 ft | 412 kts | 205° |
| 2026-03-29 08:04 | -25.62528 | 118.86804 | 37941 ft | 412 kts | 205° |
| 2026-03-29 08:05 | -25.67867 | 118.84488 | 37948 ft | 412 kts | 205° |
| 2026-03-29 08:05 | -25.73167 | 118.82188 | 37940 ft | 412 kts | 205° |
| 2026-03-29 08:06 | -25.78500 | 118.79884 | 37943 ft | 411 kts | 205° |
| 2026-03-29 08:06 | -25.83833 | 118.77579 | 37945 ft | 411 kts | 205° |
| 2026-03-29 08:07 | -25.89160 | 118.75266 | 37943 ft | 411 kts | 205° |
| 2026-03-29 08:07 | -25.93591 | 118.73337 | 37940 ft | 411 kts | 205° |
| 2026-03-29 08:08 | -25.99820 | 118.70623 | 37947 ft | 412 kts | 205° |
| 2026-03-29 08:08 | -26.04290 | 118.68677 | 37948 ft | 411 kts | 206° |
| 2026-03-29 08:09 | -26.09573 | 118.66379 | 37950 ft | 410 kts | 206° |
| 2026-03-29 08:09 | -26.14889 | 118.64056 | 37952 ft | 410 kts | 206° |
| 2026-03-29 08:10 | -26.20202 | 118.61729 | 37951 ft | 410 kts | 206° |
| 2026-03-29 08:10 | -26.25519 | 118.59404 | 37960 ft | 410 kts | 206° |
| 2026-03-29 08:11 | -26.32331 | 118.56438 | 37963 ft | 410 kts | 206° |
| 2026-03-29 08:11 | -26.37637 | 118.54118 | 37960 ft | 409 kts | 206° |
| 2026-03-29 08:12 | -26.42937 | 118.51784 | 37954 ft | 410 kts | 206° |
| 2026-03-29 08:12 | -26.48244 | 118.49452 | 37959 ft | 410 kts | 206° |
| 2026-03-29 08:13 | -26.53547 | 118.47118 | 37957 ft | 410 kts | 206° |
| 2026-03-29 08:13 | -26.58848 | 118.44784 | 37956 ft | 410 kts | 206° |
| 2026-03-29 08:14 | -26.64165 | 118.42456 | 37950 ft | 411 kts | 206° |
| 2026-03-29 08:14 | -26.69490 | 118.40121 | 37955 ft | 411 kts | 206° |
| 2026-03-29 08:15 | -26.74809 | 118.37773 | 37955 ft | 411 kts | 206° |
| 2026-03-29 08:15 | -26.80127 | 118.35419 | 37948 ft | 411 kts | 206° |
| 2026-03-29 08:16 | -26.85445 | 118.33068 | 37957 ft | 411 kts | 206° |
| 2026-03-29 08:16 | -26.90726 | 118.30735 | 37946 ft | 411 kts | 206° |
| 2026-03-29 08:17 | -26.96039 | 118.28375 | 37956 ft | 411 kts | 206° |
| 2026-03-29 08:17 | -27.01352 | 118.26014 | 37957 ft | 410 kts | 206° |
| 2026-03-29 08:18 | -27.06671 | 118.23660 | 37951 ft | 411 kts | 206° |
| 2026-03-29 08:18 | -27.11985 | 118.21304 | 37956 ft | 411 kts | 206° |
| 2026-03-29 08:19 | -27.17295 | 118.18942 | 37953 ft | 411 kts | 206° |
| 2026-03-29 08:19 | -27.22611 | 118.16575 | 37958 ft | 411 kts | 206° |
| 2026-03-29 08:20 | -27.27919 | 118.14208 | 37959 ft | 411 kts | 206° |
| 2026-03-29 08:20 | -27.33236 | 118.11835 | 37957 ft | 411 kts | 207° |
| 2026-03-29 08:21 | -27.38555 | 118.09459 | 37960 ft | 411 kts | 207° |
| 2026-03-29 08:21 | -27.43872 | 118.07080 | 37967 ft | 411 kts | 207° |
| 2026-03-29 08:22 | -27.49185 | 118.04695 | 37966 ft | 411 kts | 207° |
| 2026-03-29 08:22 | -27.54500 | 118.02315 | 37968 ft | 411 kts | 207° |
| 2026-03-29 08:23 | -27.59784 | 117.99945 | 37968 ft | 411 kts | 207° |
| 2026-03-29 08:23 | -27.65127 | 117.97542 | 37966 ft | 411 kts | 207° |
| 2026-03-29 08:24 | -27.70408 | 117.95172 | 37961 ft | 411 kts | 207° |
| 2026-03-29 08:24 | -27.75722 | 117.92785 | 37966 ft | 411 kts | 207° |
| 2026-03-29 08:25 | -27.81034 | 117.90394 | 37965 ft | 411 kts | 207° |
| 2026-03-29 08:25 | -27.86344 | 117.87992 | 37961 ft | 411 kts | 207° |
| 2026-03-29 08:26 | -27.91650 | 117.85579 | 37967 ft | 411 kts | 207° |
| 2026-03-29 08:26 | -27.96959 | 117.83180 | 37968 ft | 411 kts | 207° |
| 2026-03-29 08:27 | -28.02271 | 117.80786 | 37956 ft | 411 kts | 207° |
| 2026-03-29 08:27 | -28.07584 | 117.78389 | 37967 ft | 411 kts | 207° |
| 2026-03-29 08:28 | -28.12888 | 117.75970 | 37967 ft | 411 kts | 207° |
| 2026-03-29 08:28 | -28.18196 | 117.73556 | 37967 ft | 411 kts | 207° |
| 2026-03-29 08:29 | -28.23501 | 117.71150 | 37958 ft | 410 kts | 207° |
| 2026-03-29 08:29 | -28.28801 | 117.68741 | 37960 ft | 410 kts | 207° |
| 2026-03-29 08:30 | -28.34102 | 117.66326 | 37960 ft | 411 kts | 207° |
| 2026-03-29 08:30 | -28.39403 | 117.63905 | 37959 ft | 411 kts | 207° |
| 2026-03-29 08:31 | -28.44706 | 117.61480 | 37963 ft | 411 kts | 207° |
| 2026-03-29 08:31 | -28.50008 | 117.59056 | 37966 ft | 410 kts | 207° |
| 2026-03-29 08:32 | -28.55304 | 117.56641 | 37968 ft | 410 kts | 207° |
| 2026-03-29 08:32 | -28.60603 | 117.54225 | 37963 ft | 410 kts | 207° |
| 2026-03-29 08:33 | -28.65904 | 117.51807 | 37960 ft | 410 kts | 207° |
| 2026-03-29 08:33 | -28.71192 | 117.49380 | 37956 ft | 410 kts | 208° |
| 2026-03-29 08:34 | -28.76477 | 117.46939 | 37961 ft | 410 kts | 208° |
| 2026-03-29 08:34 | -28.81766 | 117.44500 | 37964 ft | 410 kts | 208° |
| 2026-03-29 08:35 | -28.87023 | 117.42090 | 37959 ft | 410 kts | 207° |
| 2026-03-29 08:35 | -28.92316 | 117.39662 | 37971 ft | 409 kts | 208° |
| 2026-03-29 08:36 | -28.97595 | 117.37222 | 37967 ft | 409 kts | 208° |
| 2026-03-29 08:36 | -29.02877 | 117.34788 | 37967 ft | 410 kts | 207° |
| 2026-03-29 08:37 | -29.08204 | 117.32470 | 37973 ft | 410 kts | 207° |
| 2026-03-29 08:37 | -29.13562 | 117.30202 | 37967 ft | 410 kts | 206° |
| 2026-03-29 08:38 | -29.18916 | 117.27927 | 37960 ft | 410 kts | 207° |
| 2026-03-29 08:38 | -29.24253 | 117.25619 | 37966 ft | 410 kts | 207° |
| 2026-03-29 08:39 | -29.29583 | 117.23304 | 37972 ft | 410 kts | 207° |
| 2026-03-29 08:39 | -29.34912 | 117.20994 | 37966 ft | 409 kts | 207° |
| 2026-03-29 08:40 | -29.40243 | 117.18677 | 37972 ft | 410 kts | 207° |
| 2026-03-29 08:40 | -29.45573 | 117.16359 | 37969 ft | 410 kts | 207° |
| 2026-03-29 08:41 | -29.50902 | 117.14040 | 37971 ft | 409 kts | 207° |
| 2026-03-29 08:41 | -29.56232 | 117.11722 | 37969 ft | 410 kts | 207° |
| 2026-03-29 08:42 | -29.61563 | 117.09404 | 37971 ft | 410 kts | 207° |
| 2026-03-29 08:42 | -29.66891 | 117.07080 | 37965 ft | 409 kts | 207° |
| 2026-03-29 08:43 | -29.72215 | 117.04762 | 37976 ft | 409 kts | 207° |
| 2026-03-29 08:43 | -29.77535 | 117.02443 | 37977 ft | 409 kts | 207° |
| 2026-03-29 08:44 | -29.82856 | 117.00116 | 37978 ft | 409 kts | 207° |
| 2026-03-29 08:44 | -29.88170 | 116.97782 | 37978 ft | 409 kts | 207° |
| 2026-03-29 08:45 | -29.93486 | 116.95452 | 37977 ft | 409 kts | 207° |
| 2026-03-29 08:45 | -29.98814 | 116.93125 | 37972 ft | 410 kts | 207° |
| 2026-03-29 08:46 | -30.04098 | 116.90799 | 37979 ft | 409 kts | 208° |
| 2026-03-29 08:46 | -30.09403 | 116.88451 | 37976 ft | 408 kts | 208° |
| 2026-03-29 08:47 | -30.14717 | 116.86116 | 37972 ft | 408 kts | 208° |
| 2026-03-29 08:47 | -30.20024 | 116.83776 | 37967 ft | 408 kts | 208° |
| 2026-03-29 08:48 | -30.25329 | 116.81443 | 37980 ft | 407 kts | 208° |
| 2026-03-29 08:48 | -30.30630 | 116.79098 | 37977 ft | 408 kts | 208° |
| 2026-03-29 08:49 | -30.35925 | 116.76748 | 37971 ft | 408 kts | 208° |
| 2026-03-29 08:49 | -30.41221 | 116.74401 | 37623 ft | 407 kts | 208° |
| 2026-03-29 08:50 | -30.43886 | 116.73217 | 36929 ft | 416 kts | 208° |
| 2026-03-29 08:50 | -30.46644 | 116.71978 | 35839 ft | 433 kts | 208° |
| 2026-03-29 08:50 | -30.49462 | 116.70717 | 35506 ft | 431 kts | 207° |
| 2026-03-29 08:50 | -30.52242 | 116.69490 | 35373 ft | 424 kts | 207° |
| 2026-03-29 08:51 | -30.54995 | 116.68282 | 34854 ft | 423 kts | 207° |
| 2026-03-29 08:51 | -30.57769 | 116.67056 | 33714 ft | 430 kts | 207° |
| 2026-03-29 08:51 | -30.60564 | 116.65818 | 33051 ft | 426 kts | 207° |
| 2026-03-29 08:51 | -30.63317 | 116.64599 | 32299 ft | 423 kts | 207° |
| 2026-03-29 08:52 | -30.66062 | 116.63377 | 31500 ft | 421 kts | 207° |
| 2026-03-29 08:52 | -30.68808 | 116.62149 | 30310 ft | 426 kts | 207° |
| 2026-03-29 08:52 | -30.71583 | 116.60904 | 29278 ft | 428 kts | 206° |
| 2026-03-29 08:52 | -30.74358 | 116.59661 | 28372 ft | 426 kts | 206° |
| 2026-03-29 08:53 | -30.77117 | 116.58433 | 27504 ft | 423 kts | 206° |
| 2026-03-29 08:53 | -30.79855 | 116.57218 | 26667 ft | 420 kts | 206° |
| 2026-03-29 08:53 | -30.82539 | 116.56024 | 25831 ft | 416 kts | 206° |
| 2026-03-29 08:53 | -30.85232 | 116.54824 | 24984 ft | 413 kts | 206° |
| 2026-03-29 08:54 | -30.87901 | 116.53629 | 24131 ft | 409 kts | 206° |
| 2026-03-29 08:54 | -30.90546 | 116.52443 | 23251 ft | 406 kts | 206° |
| 2026-03-29 08:54 | -30.93173 | 116.51261 | 22480 ft | 401 kts | 206° |
| 2026-03-29 08:54 | -30.95739 | 116.50111 | 22017 ft | 390 kts | 206° |
| 2026-03-29 08:55 | -30.98273 | 116.48974 | 21540 ft | 391 kts | 206° |
| 2026-03-29 08:55 | -31.00816 | 116.47830 | 21044 ft | 393 kts | 206° |
| 2026-03-29 08:55 | -31.03374 | 116.46680 | 20538 ft | 394 kts | 206° |
| 2026-03-29 08:55 | -31.05938 | 116.45530 | 20011 ft | 396 kts | 206° |
| 2026-03-29 08:56 | -31.08511 | 116.44375 | 19490 ft | 397 kts | 205° |
| 2026-03-29 08:56 | -31.10246 | 116.43595 | 19267 ft | 394 kts | 205° |
| 2026-03-29 08:56 | -31.13634 | 116.42071 | 18580 ft | 390 kts | 205° |
| 2026-03-29 08:56 | -31.16153 | 116.40938 | 17946 ft | 386 kts | 205° |
| 2026-03-29 08:57 | -31.18665 | 116.39815 | 17310 ft | 386 kts | 205° |
| 2026-03-29 08:57 | -31.21159 | 116.38695 | 16755 ft | 380 kts | 206° |
| 2026-03-29 08:57 | -31.22788 | 116.37958 | 16380 ft | 377 kts | 205° |
| 2026-03-29 08:57 | -31.25211 | 116.36858 | 15843 ft | 371 kts | 205° |
| 2026-03-29 08:58 | -31.27592 | 116.35774 | 15324 ft | 364 kts | 205° |
| 2026-03-29 08:58 | -31.29938 | 116.34705 | 14782 ft | 359 kts | 205° |
| 2026-03-29 08:58 | -31.32251 | 116.33655 | 14269 ft | 354 kts | 205° |
| 2026-03-29 08:58 | -31.34534 | 116.32622 | 13750 ft | 349 kts | 205° |
| 2026-03-29 08:59 | -31.36785 | 116.31610 | 13241 ft | 344 kts | 205° |
| 2026-03-29 08:59 | -31.39005 | 116.30610 | 12741 ft | 340 kts | 205° |
| 2026-03-29 08:59 | -31.41193 | 116.29625 | 12235 ft | 336 kts | 204° |
| 2026-03-29 08:59 | -31.43458 | 116.28929 | 11705 ft | 336 kts | 197° |
| 2026-03-29 09:00 | -31.45734 | 116.28332 | 11192 ft | 334 kts | 197° |
| 2026-03-29 09:00 | -31.47991 | 116.27745 | 10699 ft | 330 kts | 196° |
| 2026-03-29 09:00 | -31.50214 | 116.27166 | 10316 ft | 322 kts | 196° |
| 2026-03-29 09:00 | -31.52355 | 116.26612 | 10191 ft | 309 kts | 196° |
| 2026-03-29 09:01 | -31.54413 | 116.26079 | 10042 ft | 298 kts | 197° |
| 2026-03-29 09:01 | -31.56414 | 116.25557 | 9758 ft | 293 kts | 197° |
| 2026-03-29 09:01 | -31.58400 | 116.25038 | 9334 ft | 294 kts | 197° |
| 2026-03-29 09:01 | -31.60385 | 116.24517 | 9034 ft | 290 kts | 197° |
| 2026-03-29 09:02 | -31.62344 | 116.24001 | 8666 ft | 287 kts | 196° |
| 2026-03-29 09:02 | -31.64283 | 116.23489 | 8190 ft | 285 kts | 196° |
| 2026-03-29 09:02 | -31.65859 | 116.23076 | 8017 ft | 276 kts | 196° |
| 2026-03-29 09:02 | -31.67695 | 116.22600 | 7833 ft | 265 kts | 196° |
| 2026-03-29 09:03 | -31.69480 | 116.22135 | 7514 ft | 262 kts | 197° |
| 2026-03-29 09:03 | -31.71248 | 116.21669 | 7155 ft | 259 kts | 196° |
| 2026-03-29 09:03 | -31.73003 | 116.21205 | 6777 ft | 258 kts | 196° |
| 2026-03-29 09:03 | -31.74749 | 116.20743 | 6415 ft | 257 kts | 196° |
| 2026-03-29 09:04 | -31.76490 | 116.20285 | 6069 ft | 254 kts | 196° |
| 2026-03-29 09:04 | -31.78213 | 116.19832 | 5697 ft | 254 kts | 196° |
| 2026-03-29 09:04 | -31.79932 | 116.19379 | 5344 ft | 252 kts | 196° |
| 2026-03-29 09:04 | -31.81563 | 116.18702 | 4917 ft | 246 kts | 212° |
| 2026-03-29 09:05 | -31.82884 | 116.17503 | 4270 ft | 237 kts | 232° |
| 2026-03-29 09:05 | -31.83813 | 116.15917 | 3668 ft | 234 kts | 242° |
| 2026-03-29 09:05 | -31.84637 | 116.14281 | 3255 ft | 232 kts | 242° |
| 2026-03-29 09:05 | -31.85468 | 116.12656 | 2924 ft | 231 kts | 241° |
| 2026-03-29 09:06 | -31.86299 | 116.11045 | 2611 ft | 227 kts | 240° |
| 2026-03-29 09:06 | -31.87097 | 116.09503 | 2318 ft | 215 kts | 240° |
| 2026-03-29 09:06 | -31.87851 | 116.08042 | 2041 ft | 204 kts | 239° |
| 2026-03-29 09:06 | -31.88569 | 116.06653 | 1780 ft | 193 kts | 239° |
| 2026-03-29 09:07 | -31.89240 | 116.05351 | 1535 ft | 181 kts | 239° |
| 2026-03-29 09:07 | -31.89873 | 116.04124 | 1295 ft | 170 kts | 239° |
| 2026-03-29 09:07 | -31.90471 | 116.02965 | 1074 ft | 161 kts | 239° |
| 2026-03-29 09:07 | -31.91036 | 116.01870 | 866 ft | 152 kts | 239° |
| 2026-03-29 09:08 | -31.91569 | 116.00836 | 670 ft | 144 kts | 239° |
| 2026-03-29 09:08 | -31.92069 | 115.99865 | 497 ft | 132 kts | 239° |
| 2026-03-29 09:08 | -31.92521 | 115.98988 | 318 ft | 121 kts | 239° |
| 2026-03-29 09:08 | -31.92958 | 115.98139 | 168 ft | 122 kts | 239° |
| 2026-03-29 09:09 | -31.93395 | 115.97293 | 72 ft | 113 kts | 238° |
| 2026-03-29 09:09 | -31.93687 | 115.96723 | 68 ft | 50 kts | 239° |
| 2026-03-29 09:09 | -31.93862 | 115.96385 | 69 ft | 43 kts | 239° |
| 2026-03-29 09:09 | -31.93974 | 115.96161 | 69 ft | 15 kts | 240° |
| 2026-03-29 09:10 | -31.94040 | 115.96032 | 67 ft | 20 kts | 238° |
| 2026-03-29 09:10 | -31.94055 | 115.95903 | 68 ft | 19 kts | 319° |
| 2026-03-29 09:10 | -31.93962 | 115.95851 | 68 ft | 15 kts | 358° |
| 2026-03-29 09:10 | -31.93886 | 115.95960 | 68 ft | 19 kts | 59° |
| 2026-03-29 09:11 | -31.93826 | 115.96077 | 68 ft | 19 kts | 58° |
| 2026-03-29 09:11 | -31.93761 | 115.96182 | 68 ft | 18 kts | 30° |
| 2026-03-29 09:11 | -31.93662 | 115.96161 | 68 ft | 12 kts | 304° |
| 2026-03-29 09:11 | -31.93696 | 115.96071 | 68 ft | 10 kts | 238° |
| 2026-03-29 09:12 | -31.93681 | 115.96024 | 68 ft | 5 kts | 337° |
| 2026-03-29 09:12 | -31.93661 | 115.96012 | 68 ft | 1 kts | 330° |
| 2026-03-29 09:12 | -31.93660 | 115.96011 | 68 ft | 0 kts | 330° |